Time;durP1;ratioP1;P1;durP2;ratioP2;P2;SDS_P1;SDS_P2;PMS_P1;PMS_P2;Temp;Humidity;BMP_temperature;BMP_pressure;BME280_temperature;BME280_humidity;BME280_pressure;Samples;Min_cycle;Max_cycle;Signal;HPM_P1;HPM_P2
2021/09/17 00:00:45;;;;;;;;;7.50;6.75;;;;;16.63;65.41;101086.34;4957193;28;45532;-61
2021/09/17 00:03:11;;;;;;;;;8.00;8.00;;;;;16.59;65.22;101081.34;4958605;28;46398;-61
2021/09/17 00:05:36;;;;;;;;;9.00;7.75;;;;;16.58;65.22;101081.50;4958407;28;45325;-61
2021/09/17 00:08:02;;;;;;;;;8.75;8.00;;;;;16.53;65.22;101076.69;4957340;28;45231;-61
2021/09/17 00:10:27;;;;;;;;;10.50;8.50;;;;;16.48;65.16;101073.69;4958487;28;45279;-61
2021/09/17 00:12:53;;;;;;;;;7.75;6.50;;;;;16.47;65.22;101072.03;4958214;28;46330;-61
2021/09/17 00:15:18;;;;;;;;;11.25;10.25;;;;;16.45;65.27;101077.47;4940747;28;45285;-62
2021/09/17 00:17:44;;;;;;;;;8.75;7.00;;;;;16.43;64.83;101074.16;4958419;28;45740;-61
2021/09/17 00:20:10;;;;;;;;;8.25;7.25;;;;;16.41;64.82;101076.16;4958442;28;45219;-61
2021/09/17 00:22:36;;;;;;;;;9.00;7.00;;;;;16.38;64.63;101065.03;4957853;28;46451;-62
2021/09/17 00:25:01;;;;;;;;;9.75;8.00;;;;;16.34;65.04;101075.16;4958025;28;45397;-62
2021/09/17 00:27:27;;;;;;;;;8.25;8.00;;;;;16.29;65.32;101066.84;4958176;28;45318;-61
2021/09/17 00:29:52;;;;;;;;;7.50;7.50;;;;;16.27;65.63;101067.00;4958124;28;45558;-62
2021/09/17 00:32:17;;;;;;;;;11.75;10.00;;;;;16.27;65.37;101060.88;4957936;28;46742;-62
2021/09/17 00:34:43;;;;;;;;;9.50;8.75;;;;;16.26;65.10;101061.88;4958247;28;45373;-62
2021/09/17 00:37:08;;;;;;;;;7.25;7.25;;;;;16.24;64.83;101064.66;4957984;28;45520;-62
2021/09/17 00:39:34;;;;;;;;;8.75;7.00;;;;;16.24;64.68;101058.53;4957828;28;45527;-61
2021/09/17 00:41:59;;;;;;;;;11.00;7.00;;;;;16.22;64.84;101064.00;4957715;28;45927;-61
2021/09/17 00:44:25;;;;;;;;;10.00;7.00;;;;;16.20;65.24;101057.19;4957779;28;45274;-62
2021/09/17 00:46:51;;;;;;;;;7.75;7.75;;;;;16.18;65.38;101062.66;4956962;28;45260;-62
2021/09/17 00:49:17;;;;;;;;;9.75;8.00;;;;;16.16;65.31;101057.53;4957885;28;45500;-61
2021/09/17 00:51:43;;;;;;;;;8.75;8.75;;;;;16.14;65.20;101054.19;4957700;28;46154;-61
2021/09/17 00:54:09;;;;;;;;;10.50;7.75;;;;;16.11;65.18;101049.22;4957663;28;45319;-61
2021/09/17 00:56:34;;;;;;;;;8.50;7.00;;;;;16.07;65.61;101052.34;4957773;28;45227;-60
2021/09/17 00:58:59;;;;;;;;;9.50;9.25;;;;;16.02;65.67;101050.16;4957707;28;45681;-61
2021/09/17 01:01:25;;;;;;;;;8.25;7.25;;;;;16.01;65.45;101044.03;4956376;28;48142;-61
2021/09/17 01:03:50;;;;;;;;;10.00;8.25;;;;;15.99;65.07;101037.22;4957685;28;45223;-62
2021/09/17 01:06:16;;;;;;;;;8.25;7.00;;;;;15.99;65.04;101037.22;4940251;28;45372;-61
2021/09/17 01:08:41;;;;;;;;;7.75;7.75;;;;;16.00;65.33;101038.88;4940202;28;45607;-61
2021/09/17 01:11:07;;;;;;;;;10.25;9.25;;;;;15.98;65.45;101032.91;4957364;28;46228;-61
2021/09/17 01:13:32;;;;;;;;;8.00;8.00;;;;;15.99;65.34;101031.94;4957430;28;45278;-62
2021/09/17 01:15:58;;;;;;;;;8.75;7.75;;;;;15.97;65.40;101028.59;4956231;28;45338;-62
2021/09/17 01:18:23;;;;;;;;;8.00;7.00;;;;;15.96;65.41;101027.78;4957450;28;45309;-62
2021/09/17 01:20:49;;;;;;;;;8.50;7.00;;;;;15.93;65.05;101020.16;4957137;28;45333;-60
2021/09/17 01:23:14;;;;;;;;;12.50;10.50;;;;;15.92;65.21;101028.25;4957276;28;45338;-62
2021/09/17 01:25:39;;;;;;;;;13.50;12.00;;;;;15.92;65.80;101022.94;4957595;28;45342;-62
2021/09/17 01:28:05;;;;;;;;;10.25;9.50;;;;;15.92;65.21;101025.59;4960145;28;45496;-61
2021/09/17 01:30:30;;;;;;;;;10.75;8.75;;;;;15.90;65.12;101014.34;4959350;28;46385;-61
2021/09/17 01:32:56;;;;;;;;;8.50;8.25;;;;;15.88;65.21;101014.50;4960732;28;45243;-61
2021/09/17 01:35:22;;;;;;;;;10.50;8.75;;;;;15.86;65.12;101014.69;4960870;28;45301;-60
2021/09/17 01:37:48;;;;;;;;;9.00;8.75;;;;;15.87;65.29;101012.84;4959392;28;45395;-61
2021/09/17 01:40:13;;;;;;;;;9.25;9.25;;;;;15.89;65.38;101002.09;4960152;28;46491;-61
2021/09/17 01:42:39;;;;;;;;;11.25;8.25;;;;;15.89;65.24;100996.81;4959222;28;45351;-61
2021/09/17 01:45:05;;;;;;;;;12.00;8.50;;;;;15.88;65.33;100995.94;4960875;28;45299;-61
2021/09/17 01:47:30;;;;;;;;;11.50;9.00;;;;;15.87;65.40;101003.09;4960520;28;45731;-61
2021/09/17 01:49:56;;;;;;;;;10.75;10.00;;;;;15.88;65.33;100993.31;4960294;28;46563;-61
2021/09/17 01:52:21;;;;;;;;;9.00;9.00;;;;;15.88;65.46;100995.94;4960308;28;45277;-61
2021/09/17 01:54:47;;;;;;;;;10.75;10.75;;;;;15.87;65.40;100994.28;4960450;28;45292;-62
2021/09/17 01:57:12;;;;;;;;;11.50;11.50;;;;;15.90;65.74;100995.81;4960381;28;45306;-61
2021/09/17 01:59:37;;;;;;;;;10.50;9.25;;;;;15.90;65.43;100990.50;4960210;28;46474;-61
2021/09/17 02:02:03;;;;;;;;;12.75;9.75;;;;;15.91;65.69;100985.03;4960384;28;45318;-61
2021/09/17 02:04:29;;;;;;;;;11.00;9.50;;;;;15.91;65.81;100989.50;4960220;28;45319;-62
2021/09/17 02:06:54;;;;;;;;;11.75;11.75;;;;;15.92;65.77;100980.56;4960115;28;45251;-61
2021/09/17 02:09:19;;;;;;;;;11.50;10.25;;;;;15.90;65.83;100979.91;4960022;28;45412;-62
2021/09/17 02:11:45;;;;;;;;;13.50;12.25;;;;;15.88;65.64;100969.47;4960042;28;45346;-61
2021/09/17 02:14:10;;;;;;;;;10.75;8.25;;;;;15.86;65.14;100971.41;4960227;28;45302;-61
2021/09/17 02:16:37;;;;;;;;;14.50;11.50;;;;;15.82;65.24;100962.97;4960171;28;45527;-61
2021/09/17 02:19:03;;;;;;;;;15.00;12.50;;;;;15.82;65.26;100960.31;4959898;28;46436;-61
2021/09/17 02:21:29;;;;;;;;;10.75;8.75;;;;;15.82;65.56;100968.25;4959853;28;45246;-61
2021/09/17 02:23:55;;;;;;;;;10.75;9.25;;;;;15.83;65.46;100961.13;4960362;28;45201;-61
2021/09/17 02:26:20;;;;;;;;;11.75;9.50;;;;;15.81;65.39;100958.66;4959981;28;45511;-61
2021/09/17 02:28:46;;;;;;;;;10.25;9.50;;;;;15.79;65.10;100957.97;4959759;28;45391;-62
2021/09/17 02:31:11;;;;;;;;;10.50;10.50;;;;;15.76;64.91;100955.66;4959962;28;45507;-61
2021/09/17 02:33:37;;;;;;;;;12.00;10.50;;;;;15.77;65.17;100957.31;4959909;28;45327;-62
2021/09/17 02:36:03;;;;;;;;;10.00;8.50;;;;;15.78;65.37;100958.13;4959983;28;45232;-61
2021/09/17 02:38:28;;;;;;;;;14.50;12.25;;;;;15.78;65.77;100955.47;4959076;28;47339;-62
2021/09/17 02:40:53;;;;;;;;;11.25;11.00;;;;;15.78;65.89;100953.66;4959900;28;45340;-60
2021/09/17 02:43:19;;;;;;;;;9.00;9.00;;;;;15.77;65.75;100959.97;4959941;28;45306;-61
2021/09/17 02:45:44;;;;;;;;;13.00;10.75;;;;;15.75;65.79;100953.97;4959629;28;45301;-61
2021/09/17 02:48:10;;;;;;;;;13.00;11.75;;;;;15.76;65.89;100954.81;4959441;28;46255;-61
2021/09/17 02:50:35;;;;;;;;;12.00;12.00;;;;;15.72;66.11;100955.13;4959492;28;45344;-61
2021/09/17 02:53:01;;;;;;;;;10.75;10.50;;;;;15.71;66.49;100950.00;4942372;28;45305;-62
2021/09/17 02:55:26;;;;;;;;;14.25;11.00;;;;;15.70;66.21;100956.28;4959607;28;45151;-60
2021/09/17 02:57:52;;;;;;;;;15.00;13.25;;;;;15.67;66.38;100943.34;4959315;28;45258;-61
2021/09/17 03:00:17;;;;;;;;;13.50;13.25;;;;;15.66;66.28;100944.34;4959515;28;45226;-62
2021/09/17 03:02:44;;;;;;;;;14.75;12.75;;;;;15.64;65.91;100947.13;4959345;28;45231;-62
2021/09/17 03:05:09;;;;;;;;;11.50;11.00;;;;;15.62;65.87;100948.28;4959338;28;45480;-61
2021/09/17 03:07:35;;;;;;;;;11.50;10.50;;;;;15.62;65.44;100945.66;4959161;28;46510;-61
2021/09/17 03:10:00;;;;;;;;;13.25;11.25;;;;;15.62;65.58;100943.00;4959408;28;45306;-62
2021/09/17 03:12:25;;;;;;;;;10.50;10.50;;;;;15.63;66.15;100939.34;4959289;28;45683;-61
2021/09/17 03:14:51;;;;;;;;;10.50;10.50;;;;;15.63;65.92;100937.53;4959468;28;45501;-62
2021/09/17 03:17:16;;;;;;;;;14.00;10.00;;;;;15.58;65.62;100935.38;4958972;28;46573;-61
2021/09/17 03:19:42;;;;;;;;;11.00;10.25;;;;;15.57;65.75;100932.91;4959030;28;45347;-62
2021/09/17 03:22:07;;;;;;;;;11.25;10.75;;;;;15.56;65.51;100924.09;4941900;28;45349;-62
2021/09/17 03:24:32;;;;;;;;;11.50;11.50;;;;;15.56;65.87;100929.41;4959023;28;45333;-62
2021/09/17 03:26:58;;;;;;;;;11.75;11.00;;;;;15.55;65.78;100922.44;4958871;28;46063;-61
2021/09/17 03:29:23;;;;;;;;;10.00;10.00;;;;;15.53;65.87;100919.13;4958865;28;45325;-61
2021/09/17 03:31:49;;;;;;;;;10.75;10.75;;;;;15.51;66.20;100925.59;4959041;28;45294;-61
2021/09/17 03:34:14;;;;;;;;;12.00;11.50;;;;;15.48;65.60;100921.41;4958735;28;45295;-61
2021/09/17 03:36:43;;;;;;;;;10.25;10.25;;;;;15.45;65.27;100916.44;4958805;28;45474;-61
2021/09/17 03:39:10;;;;;;;;;8.25;8.25;;;;;15.43;65.30;100919.25;4958672;28;45476;-62
2021/09/17 03:41:35;;;;;;;;;11.50;10.75;;;;;15.41;65.19;100917.75;4959034;28;45261;-61
2021/09/17 03:44:01;;;;;;;;;10.00;8.50;;;;;15.37;65.28;100909.28;4958922;28;45635;-61
2021/09/17 03:46:26;;;;;;;;;11.00;10.50;;;;;15.35;65.30;100913.91;4958529;28;46166;-60
2021/09/17 03:48:51;;;;;;;;;11.50;10.50;;;;;15.34;66.03;100920.19;4958028;28;45286;-61
2021/09/17 03:51:17;;;;;;;;;10.00;8.50;;;;;15.34;65.87;100914.91;4956899;28;45831;-61
2021/09/17 03:53:42;;;;;;;;;9.25;8.00;;;;;15.34;66.22;100916.75;4958653;28;45517;-61
2021/09/17 03:56:08;;;;;;;;;11.50;10.75;;;;;15.32;66.07;100916.06;4958838;28;46199;-62
2021/09/17 03:58:33;;;;;;;;;10.50;9.50;;;;;15.31;66.37;100925.00;4958354;28;45247;-61
2021/09/17 04:00:58;;;;;;;;;13.50;12.00;;;;;15.29;66.11;100927.78;4958423;28;45288;-61
2021/09/17 04:03:24;;;;;;;;;11.25;9.50;;;;;15.26;66.11;100922.81;4958502;28;45258;-62
2021/09/17 04:05:49;;;;;;;;;12.25;10.50;;;;;15.21;65.84;100920.63;4957078;28;46544;-61
2021/09/17 04:08:15;;;;;;;;;8.75;8.75;;;;;15.18;65.60;100918.31;4958570;28;45284;-62
2021/09/17 04:10:40;;;;;;;;;11.50;9.00;;;;;15.16;65.63;100928.22;4958606;28;45441;-61
2021/09/17 04:13:06;;;;;;;;;12.75;10.75;;;;;15.16;65.69;100922.06;4958336;28;45643;-61
2021/09/17 04:15:31;;;;;;;;;9.75;9.50;;;;;15.16;65.93;100920.28;4958089;28;46746;-61
2021/09/17 04:17:56;;;;;;;;;10.75;9.75;;;;;15.14;65.97;100924.91;4958226;28;45296;-62
2021/09/17 04:20:22;;;;;;;;;8.50;8.50;;;;;15.13;66.12;100921.41;4958617;28;45199;-62
2021/09/17 04:22:47;;;;;;;;;11.75;9.75;;;;;15.12;65.53;100919.75;4958177;28;45303;-61
2021/09/17 04:25:13;;;;;;;;;10.75;10.25;;;;;15.14;65.63;100924.91;4958270;28;46240;-61
2021/09/17 04:27:38;;;;;;;;;11.00;9.75;;;;;15.10;65.56;100919.06;4958049;28;45247;-61
2021/09/17 04:30:05;;;;;;;;;12.00;10.75;;;;;15.09;65.69;100919.25;4958205;28;45236;-61
2021/09/17 04:32:31;;;;;;;;;12.50;11.75;;;;;15.07;66.04;100919.41;4957685;28;45519;-61
2021/09/17 04:34:57;;;;;;;;;12.00;10.75;;;;;15.07;66.56;100924.69;4957985;28;45374;-61
2021/09/17 04:37:22;;;;;;;;;12.00;9.75;;;;;15.06;66.19;100922.19;4957886;28;45436;-61
2021/09/17 04:39:48;;;;;;;;;9.50;9.50;;;;;15.04;66.14;100918.88;4957947;28;45727;-61
2021/09/17 04:42:13;;;;;;;;;9.75;9.75;;;;;15.02;65.90;100920.84;4958127;28;45274;-62
2021/09/17 04:44:39;;;;;;;;;10.50;10.25;;;;;15.01;66.43;100920.03;4958025;28;45346;-61
2021/09/17 04:47:04;;;;;;;;;9.50;6.75;;;;;14.97;65.62;100913.38;4958007;28;45397;-61
2021/09/17 04:49:29;;;;;;;;;10.25;8.25;;;;;14.93;65.57;100912.84;4956740;28;45389;-61
2021/09/17 04:51:55;;;;;;;;;11.25;11.25;;;;;14.92;65.64;100913.84;4958118;28;45363;-61
2021/09/17 04:54:20;;;;;;;;;12.00;10.25;;;;;14.93;66.51;100918.13;4957724;28;45428;-62
2021/09/17 04:56:46;;;;;;;;;13.00;10.75;;;;;14.92;66.48;100916.47;4958088;28;45358;-62
2021/09/17 04:59:11;;;;;;;;;10.50;10.50;;;;;14.93;66.29;100909.38;4957808;28;45494;-61
2021/09/17 05:01:37;;;;;;;;;8.75;8.75;;;;;14.93;66.69;100918.13;4957835;28;45556;-61
2021/09/17 05:04:02;;;;;;;;;9.25;8.25;;;;;14.92;65.80;100916.47;4957461;28;46213;-61
2021/09/17 05:06:30;;;;;;;;;9.50;9.00;;;;;14.89;65.31;100908.84;4957290;28;45263;-62
2021/09/17 05:08:59;;;;;;;;;11.25;10.75;;;;;14.88;65.26;100912.47;4957685;28;45584;-61
2021/09/17 05:11:25;;;;;;;;;12.50;12.00;;;;;14.87;65.67;100912.66;4957537;28;45386;-61
2021/09/17 05:13:51;;;;;;;;;9.75;9.50;;;;;14.83;65.73;100915.59;4957313;28;45610;-61
2021/09/17 05:16:16;;;;;;;;;11.75;11.25;;;;;14.82;65.40;100913.94;4957236;28;45274;-61
2021/09/17 05:18:43;;;;;;;;;15.25;10.50;;;;;14.82;65.73;100915.78;4957510;28;45221;-61
2021/09/17 05:21:09;;;;;;;;;11.75;11.75;;;;;14.81;65.88;100916.75;4957299;28;45223;-60
2021/09/17 05:23:35;;;;;;;;;12.50;10.50;;;;;14.79;65.88;100906.31;4956029;28;45355;-61
2021/09/17 05:26:02;;;;;;;;;13.75;11.75;;;;;14.77;66.27;100907.47;4957439;28;45345;-61
2021/09/17 05:28:27;;;;;;;;;10.75;10.00;;;;;14.75;65.76;100907.59;4956141;28;45372;-61
2021/09/17 05:30:52;;;;;;;;;14.00;12.75;;;;;14.75;66.35;100904.97;4957537;28;45472;-61
2021/09/17 05:33:18;;;;;;;;;14.25;12.50;;;;;14.78;66.79;100909.13;4957048;28;46271;-61
2021/09/17 05:35:43;;;;;;;;;15.75;13.50;;;;;14.77;66.35;100903.00;4957166;28;45328;-61
2021/09/17 05:38:09;;;;;;;;;13.50;12.75;;;;;14.75;66.33;100904.16;4957096;28;45286;-61
2021/09/17 05:40:34;;;;;;;;;14.00;11.75;;;;;14.73;66.40;100906.13;4956711;28;45310;-61
2021/09/17 05:43:00;;;;;;;;;11.00;11.00;;;;;14.70;66.23;100901.94;4956240;28;45339;-62
2021/09/17 05:45:25;;;;;;;;;16.00;15.00;;;;;14.66;66.80;100904.06;4957019;28;45336;-61
2021/09/17 05:47:50;;;;;;;;;12.50;10.00;;;;;14.65;66.49;100904.19;4957043;28;45396;-61
2021/09/17 05:50:16;;;;;;;;;12.75;11.25;;;;;14.64;66.60;100913.09;4956987;28;45632;-60
2021/09/17 05:52:41;;;;;;;;;15.50;12.50;;;;;14.63;66.35;100912.28;4956802;28;45355;-61
2021/09/17 05:55:07;;;;;;;;;12.50;11.75;;;;;14.64;66.29;100910.47;4956933;28;45331;-61
2021/09/17 05:57:33;;;;;;;;;13.00;12.25;;;;;14.63;66.02;100909.66;4956850;28;45266;-61
2021/09/17 05:59:58;;;;;;;;;11.00;9.50;;;;;14.64;65.72;100910.47;4956829;28;45537;-61
2021/09/17 06:02:23;;;;;;;;;13.75;12.50;;;;;14.62;65.92;100908.00;4956548;28;46531;-61
2021/09/17 06:04:49;;;;;;;;;14.50;13.00;;;;;14.63;66.10;100900.88;4956656;28;45289;-62
2021/09/17 06:07:14;;;;;;;;;13.25;12.50;;;;;14.62;66.75;100910.63;4956867;28;45506;-61
2021/09/17 06:09:40;;;;;;;;;13.00;12.00;;;;;14.64;66.17;100910.47;4956934;28;45584;-61
2021/09/17 06:12:05;;;;;;;;;11.75;11.75;;;;;14.66;66.17;100905.84;4956626;28;46319;-62
2021/09/17 06:14:31;;;;;;;;;12.75;12.00;;;;;14.68;66.49;100907.38;4959590;28;45224;-61
2021/09/17 06:16:56;;;;;;;;;17.50;15.25;;;;;14.72;66.75;100907.09;4960141;28;45480;-61
2021/09/17 06:19:22;;;;;;;;;14.00;12.75;;;;;14.74;66.53;100903.31;4959900;28;45305;-61
2021/09/17 06:21:47;;;;;;;;;14.25;14.25;;;;;14.77;66.85;100903.00;4959734;28;46055;-61
2021/09/17 06:24:13;;;;;;;;;12.25;12.00;;;;;14.80;66.65;100904.50;4960018;28;45246;-61
2021/09/17 06:26:38;;;;;;;;;14.25;13.25;;;;;14.82;66.52;100900.72;4958682;28;45358;-61
2021/09/17 06:29:05;;;;;;;;;13.75;13.75;;;;;14.84;66.58;100903.19;4959866;28;45595;-61
2021/09/17 06:31:30;;;;;;;;;15.00;13.00;;;;;14.87;67.00;100908.19;4958361;28;46152;-60
2021/09/17 06:33:56;;;;;;;;;16.00;16.00;;;;;14.90;66.94;100907.06;4959657;28;45422;-61
2021/09/17 06:36:21;;;;;;;;;15.00;13.00;;;;;14.93;66.91;100901.44;4958229;28;45390;-61
2021/09/17 06:38:47;;;;;;;;;18.00;15.00;;;;;14.95;67.27;100902.94;4959382;28;45505;-61
2021/09/17 06:41:12;;;;;;;;;18.50;15.50;;;;;14.99;67.74;100901.66;4959181;28;46465;-61
2021/09/17 06:43:38;;;;;;;;;37.50;33.25;;;;;15.03;67.68;100899.53;4959367;28;45359;-61
2021/09/17 06:46:03;;;;;;;;;53.25;42.25;;;;;15.08;67.85;100901.69;4959595;28;45530;-61
2021/09/17 06:48:28;;;;;;;;;20.50;18.25;;;;;15.13;67.95;100896.75;4959561;28;45230;-61
2021/09/17 06:50:54;;;;;;;;;18.50;17.25;;;;;15.21;68.18;100904.75;4959356;28;46452;-61
2021/09/17 06:53:19;;;;;;;;;17.25;14.25;;;;;15.27;68.17;100901.47;4959275;28;45255;-62
2021/09/17 06:55:45;;;;;;;;;18.00;15.50;;;;;15.37;68.00;100893.41;4959560;28;45246;-61
2021/09/17 06:58:10;;;;;;;;;16.75;15.75;;;;;15.47;67.99;100890.63;4959170;28;45266;-61
2021/09/17 07:00:37;;;;;;;;;18.75;15.75;;;;;15.60;67.75;100894.66;4959005;28;45262;-61
2021/09/17 07:03:03;;;;;;;;;16.25;15.25;;;;;15.71;67.69;100897.00;4959206;28;45891;-61
2021/09/17 07:05:29;;;;;;;;;14.00;12.00;;;;;15.86;67.61;100884.84;4959235;28;45354;-61
2021/09/17 07:08:01;;;;;;;;;21.50;17.75;;;;;16.03;67.59;100887.50;4942352;28;45581;-61
2021/09/17 07:10:26;;;;;;;;;17.25;16.00;;;;;16.21;67.06;100891.84;4959027;28;46071;-62
2021/09/17 07:12:52;;;;;;;;;16.75;16.75;;;;;16.38;66.49;100885.56;4959057;28;45259;-61
2021/09/17 07:15:17;;;;;;;;;18.25;16.75;;;;;16.57;66.29;100884.38;4959250;28;45325;-61
2021/09/17 07:17:43;;;;;;;;;19.00;16.25;;;;;16.75;65.85;100880.69;4959071;28;45321;-61
2021/09/17 07:20:09;;;;;;;;;16.00;14.50;;;;;16.93;65.27;100880.50;4959080;28;45361;-61
2021/09/17 07:22:34;;;;;;;;;14.75;13.50;;;;;17.09;64.57;100884.97;4958778;28;45901;-61
2021/09/17 07:24:59;;;;;;;;;17.50;14.75;;;;;17.28;64.40;100888.22;4957802;28;45368;-61
2021/09/17 07:27:25;;;;;;;;;18.75;14.50;;;;;17.41;64.07;100883.19;4958861;28;45444;-61
2021/09/17 07:29:50;;;;;;;;;17.25;15.25;;;;;17.57;63.52;100890.25;4958563;28;45355;-61
2021/09/17 07:32:16;;;;;;;;;15.00;13.25;;;;;17.72;63.38;100885.06;4958932;28;45433;-61
2021/09/17 07:34:41;;;;;;;;;19.50;18.00;;;;;17.89;63.13;100883.13;4958751;28;45660;-61
2021/09/17 07:37:07;;;;;;;;;18.50;17.75;;;;;18.07;62.47;100882.84;4958670;28;45163;-61
2021/09/17 07:39:33;;;;;;;;;18.00;16.00;;;;;18.27;62.08;100882.38;4958292;28;45227;-61
2021/09/17 07:41:58;;;;;;;;;21.25;18.00;;;;;18.42;61.88;100874.44;4958612;28;45247;-61
2021/09/17 07:44:23;;;;;;;;;13.25;12.50;;;;;18.57;61.20;100882.44;4958670;28;45312;-61
2021/09/17 07:46:49;;;;;;;;;16.75;14.25;;;;;18.71;60.93;100886.13;4958730;28;45429;-61
2021/09/17 07:49:14;;;;;;;;;16.25;14.00;;;;;18.88;60.55;100878.81;4957094;28;46239;-62
2021/09/17 07:51:40;;;;;;;;;15.00;13.00;;;;;19.07;60.47;100880.16;4958274;28;45245;-60
2021/09/17 07:54:05;;;;;;;;;17.00;16.00;;;;;19.27;59.91;100884.91;4958430;28;45336;-62
2021/09/17 07:56:31;;;;;;;;;16.25;13.50;;;;;19.41;59.68;100880.56;4958407;28;45154;-61
2021/09/17 07:58:56;;;;;;;;;17.25;16.25;;;;;19.58;58.92;100886.53;4958201;28;45567;-61
2021/09/17 08:01:21;;;;;;;;;17.00;13.50;;;;;19.73;59.16;100889.97;4958229;28;45518;-61
2021/09/17 08:03:47;;;;;;;;;15.00;12.00;;;;;19.92;58.20;100895.75;4958532;28;45731;-61
2021/09/17 08:06:14;;;;;;;;;14.00;12.75;;;;;20.11;57.91;100885.47;4958502;28;45257;-61
2021/09/17 08:08:40;;;;;;;;;12.50;10.75;;;;;20.30;57.47;100884.81;4956840;28;46662;-61
2021/09/17 08:11:05;;;;;;;;;13.00;11.75;;;;;20.49;56.67;100882.50;4958223;28;45386;-62
2021/09/17 08:13:31;;;;;;;;;14.75;11.75;;;;;20.62;56.96;100879.09;4958390;28;45578;-62
2021/09/17 08:15:56;;;;;;;;;17.25;16.00;;;;;20.77;56.52;100884.38;4958460;28;45588;-62
2021/09/17 08:18:21;;;;;;;;;19.75;15.00;;;;;20.95;56.74;100883.84;4958357;28;46706;-61
2021/09/17 08:20:50;;;;;;;;;14.75;11.00;;;;;21.14;55.95;100881.50;4958408;28;45345;-61
2021/09/17 08:23:18;;;;;;;;;12.00;11.25;;;;;21.35;55.67;100888.59;4958100;28;45239;-61
2021/09/17 08:25:44;;;;;;;;;11.75;11.75;;;;;21.53;54.70;100889.91;4958094;28;45648;-62
2021/09/17 08:28:09;;;;;;;;;10.75;9.75;;;;;21.70;53.43;100888.56;4957954;28;45461;-61
2021/09/17 08:30:35;;;;;;;;;12.75;10.25;;;;;21.86;53.54;100895.38;4957710;28;45354;-62
2021/09/17 08:33:00;;;;;;;;;8.00;8.00;;;;;21.99;52.93;100891.91;4957779;28;45322;-62
2021/09/17 08:35:26;;;;;;;;;11.50;9.25;;;;;22.15;52.48;100900.56;4957523;28;45306;-62
2021/09/17 08:37:51;;;;;;;;;10.75;10.00;;;;;22.30;52.33;100895.81;4957672;28;45524;-62
2021/09/17 08:40:16;;;;;;;;;9.00;7.50;;;;;22.48;51.95;100899.78;4957309;28;45191;-62
2021/09/17 08:42:42;;;;;;;;;10.25;10.25;;;;;22.68;51.26;100894.41;4957828;28;45195;-62
2021/09/17 08:45:08;;;;;;;;;10.25;10.00;;;;;22.84;50.66;100893.13;4957150;28;45248;-62
2021/09/17 08:47:33;;;;;;;;;10.00;8.25;;;;;23.01;50.14;100884.66;4957367;28;45201;-62
2021/09/17 08:49:59;;;;;;;;;9.50;9.50;;;;;23.13;50.50;100881.09;4955783;28;45281;-62
2021/09/17 08:52:24;;;;;;;;;10.25;9.00;;;;;23.29;49.95;100880.91;4957466;28;45234;-62
2021/09/17 08:54:50;;;;;;;;;10.50;9.00;;;;;23.44;49.55;100888.66;4957634;28;45624;-62
2021/09/17 08:57:15;;;;;;;;;12.00;9.00;;;;;23.60;49.13;100879.28;4957370;28;46580;-62
2021/09/17 08:59:43;;;;;;;;;12.50;10.00;;;;;23.76;48.54;100883.31;4957688;28;45384;-62
2021/09/17 09:02:28;;;;;;;;;11.00;9.00;;;;;23.90;47.89;100878.69;4957569;28;45353;-62
2021/09/17 09:05:01;;;;;;;;;10.00;10.00;;;;;24.02;47.61;100884.25;4957819;28;45333;-62
2021/09/17 09:07:34;;;;;;;;;10.00;9.00;;;;;24.19;47.19;100887.22;4956323;28;46321;-62
2021/09/17 09:10:11;;;;;;;;;12.75;8.75;;;;;24.35;46.78;100884.00;4957408;28;45221;-62
2021/09/17 09:12:49;;;;;;;;;11.25;11.25;;;;;24.54;46.42;100875.97;4957348;28;45224;-62
2021/09/17 09:15:18;;;;;;;;;9.00;9.00;;;;;24.69;45.89;100881.81;4957463;28;45404;-62
2021/09/17 09:17:45;;;;;;;;;9.00;9.00;;;;;24.85;45.55;100883.13;4957103;28;47437;-62
2021/09/17 09:20:26;;;;;;;;;10.50;10.50;;;;;24.99;44.85;100875.72;4957113;28;45189;-62
2021/09/17 09:23:21;;;;;;;;;10.00;8.25;;;;;25.08;44.28;100878.13;4956083;28;45334;-62
2021/09/17 09:25:49;;;;;;;;;8.25;7.25;;;;;25.13;44.33;100876.41;4955940;28;45339;-63
2021/09/17 09:28:16;;;;;;;;;10.00;10.00;;;;;25.19;44.17;100874.69;4957426;28;45442;-63
2021/09/17 09:30:41;;;;;;;;;8.75;7.00;;;;;25.27;44.12;100873.53;4957318;28;45403;-62
2021/09/17 09:33:25;;;;;;;;;10.00;8.00;;;;;25.38;43.92;100875.47;4957555;28;45293;-62
2021/09/17 09:35:56;;;;;;;;;8.75;8.75;;;;;25.47;43.58;100873.31;4957096;28;45234;-62
2021/09/17 09:38:28;;;;;;;;;12.25;8.25;;;;;25.49;42.95;100865.84;4956800;28;46566;-62
2021/09/17 09:41:00;;;;;;;;;10.00;8.50;;;;;25.46;42.96;100863.59;4957064;28;45302;-62
2021/09/17 09:43:33;;;;;;;;;9.50;7.00;;;;;25.47;43.16;100867.94;4957030;28;45380;-62
2021/09/17 09:46:21;;;;;;;;;6.00;6.00;;;;;25.56;42.88;100863.06;4955784;28;45264;-62
2021/09/17 09:49:04;;;;;;;;;7.00;7.00;;;;;25.72;42.58;100859.72;4959050;28;45364;-62
2021/09/17 09:51:31;;;;;;;;;7.00;5.00;;;;;25.84;42.48;100857.06;4960484;28;45262;-63
2021/09/17 09:54:04;;;;;;;;;5.75;4.50;;;;;25.97;41.70;100869.50;4960563;28;45494;-62
2021/09/17 09:56:30;;;;;;;;;5.25;5.25;;;;;26.12;41.10;100868.25;4960632;28;45244;-62
2021/09/17 09:58:55;;;;;;;;;6.00;5.00;;;;;26.24;41.28;100868.28;4960154;28;45508;-62
2021/09/17 10:01:22;;;;;;;;;5.50;4.00;;;;;26.37;41.18;100868.06;4958993;28;45275;-62
2021/09/17 10:03:50;;;;;;;;;4.25;4.25;;;;;26.49;40.15;100866.19;4960374;28;45332;-63
2021/09/17 10:06:16;;;;;;;;;5.00;5.00;;;;;26.45;40.10;100864.19;4960121;28;45484;-62
2021/09/17 10:08:41;;;;;;;;;8.25;6.50;;;;;26.49;39.92;100859.97;4959805;28;46476;-62
2021/09/17 10:11:07;;;;;;;;;4.75;4.00;;;;;26.55;39.81;100858.19;4960192;28;45211;-63
2021/09/17 10:13:32;;;;;;;;;7.00;7.00;;;;;26.62;39.44;100854.34;4960010;28;45231;-62
2021/09/17 10:15:58;;;;;;;;;3.00;3.00;;;;;26.76;40.50;100854.09;4959970;28;45443;-63
2021/09/17 10:18:23;;;;;;;;;5.25;4.50;;;;;26.93;38.95;100854.22;4958329;28;47200;-63
2021/09/17 10:20:50;;;;;;;;;5.00;5.00;;;;;27.00;39.21;100843.28;4942485;28;45299;-63
2021/09/17 10:23:32;;;;;;;;;5.75;4.75;;;;;26.99;38.24;100847.88;4959875;28;45348;-62
2021/09/17 10:26:01;;;;;;;;;6.25;5.00;;;;;26.94;38.24;100850.47;4959771;28;45194;-62
2021/09/17 10:28:26;;;;;;;;;5.00;3.25;;;;;26.92;37.52;100845.28;4959976;28;45279;-62
2021/09/17 10:30:51;;;;;;;;;5.00;5.00;;;;;26.96;37.49;100837.56;4959727;28;45498;-62
2021/09/17 10:33:24;;;;;;;;;6.50;4.00;;;;;27.02;37.85;100836.63;4959610;28;45647;-62
2021/09/17 10:35:50;;;;;;;;;3.00;3.00;;;;;27.08;37.93;100841.03;4959542;28;45238;-62
2021/09/17 10:38:18;;;;;;;;;4.00;4.00;;;;;27.00;37.05;100841.41;4958452;28;46107;-61
2021/09/17 10:40:46;;;;;;;;;3.75;3.75;;;;;26.86;37.49;100837.34;4959813;28;45256;-62
2021/09/17 10:43:17;;;;;;;;;4.00;4.00;;;;;26.70;37.89;100834.28;4959751;28;45238;-62
2021/09/17 10:45:50;;;;;;;;;5.00;4.50;;;;;26.64;37.76;100830.69;4959566;28;45499;-62
2021/09/17 10:48:16;;;;;;;;;5.00;4.00;;;;;26.67;37.44;100840.16;4959659;28;46201;-62
2021/09/17 10:50:46;;;;;;;;;5.75;5.75;;;;;26.74;37.85;100835.47;4958043;28;45395;-62
2021/09/17 10:53:12;;;;;;;;;5.50;5.00;;;;;26.81;37.83;100830.78;4959366;28;45264;-62
2021/09/17 10:55:43;;;;;;;;;8.00;5.50;;;;;26.94;37.90;100831.59;4959409;28;45251;-63
2021/09/17 10:58:27;;;;;;;;;5.50;5.00;;;;;27.08;37.02;100829.44;4959190;28;46335;-62
2021/09/17 11:01:00;;;;;;;;;6.00;4.75;;;;;27.10;36.28;100833.50;4959362;28;45339;-62
2021/09/17 11:03:40;;;;;;;;;6.50;4.00;;;;;27.06;36.25;100831.53;4957478;28;45291;-62
2021/09/17 11:06:18;;;;;;;;;4.00;4.00;;;;;27.05;36.34;100824.50;4959572;28;45537;-62
2021/09/17 11:09:00;;;;;;;;;3.25;3.00;;;;;27.14;35.67;100824.94;4959230;28;45520;-62
2021/09/17 11:11:33;;;;;;;;;4.75;4.25;;;;;27.12;35.39;100822.50;4959291;28;45919;-62